createdAt,value
2018-10-09T00:00:07.955Z,12.40
2018-10-09T00:02:37.408Z,12.40
2018-10-09T00:05:07.680Z,12.40
2018-10-09T00:07:37.664Z,12.40
2018-10-09T00:10:07.441Z,12.40
2018-10-09T00:12:37.148Z,12.40
2018-10-09T00:15:07.134Z,12.40
2018-10-09T00:17:36.910Z,12.40
2018-10-09T00:20:06.788Z,12.30
2018-10-09T00:22:36.373Z,12.30
2018-10-09T00:25:07.055Z,12.30
2018-10-09T00:27:37.166Z,12.30
2018-10-09T00:30:07.485Z,12.30
2018-10-09T00:32:37.037Z,12.20
2018-10-09T00:35:06.836Z,12.30
2018-10-09T00:37:36.503Z,12.30
2018-10-09T00:40:06.034Z,12.30
2018-10-09T00:42:35.505Z,12.30
2018-10-09T00:45:05.797Z,12.30
2018-10-09T00:47:35.372Z,12.30
2018-10-09T00:50:05.145Z,12.20
2018-10-09T00:52:34.937Z,12.20
2018-10-09T00:55:04.712Z,12.20
2018-10-09T00:57:34.448Z,12.10
2018-10-09T01:00:04.732Z,12.10
2018-10-09T01:02:34.766Z,12.00
2018-10-09T01:05:05.101Z,12.00
2018-10-09T01:07:34.747Z,12.10
2018-10-09T01:10:04.477Z,12.00
2018-10-09T01:12:34.201Z,12.00
2018-10-09T01:15:03.957Z,12.00
2018-10-09T01:17:33.414Z,12.00
2018-10-09T01:20:03.045Z,11.90
2018-10-09T01:22:32.737Z,11.90
2018-10-09T01:25:02.354Z,12.00
2018-10-09T01:27:32.033Z,12.00
2018-10-09T01:30:01.483Z,11.90
2018-10-09T01:32:31.145Z,11.90
2018-10-09T01:35:00.649Z,11.90
2018-10-09T01:37:30.378Z,11.90
2018-10-09T01:40:00.082Z,11.90
2018-10-09T01:42:29.800Z,12.00
2018-10-09T01:44:59.272Z,11.90
2018-10-09T01:47:29.117Z,12.00
2018-10-09T01:49:58.599Z,12.00
2018-10-09T01:52:28.237Z,12.00
2018-10-09T01:54:57.993Z,12.00
2018-10-09T01:57:28.436Z,12.00
2018-10-09T01:59:58.299Z,11.90
2018-10-09T02:02:34.773Z,11.90
2018-10-09T02:05:04.329Z,11.90
2018-10-09T02:07:34.086Z,11.90
2018-10-09T02:10:03.676Z,11.90
2018-10-09T02:12:33.416Z,11.80
2018-10-09T02:15:03.211Z,11.80
2018-10-09T02:17:32.922Z,11.80
2018-10-09T02:20:02.615Z,11.80
2018-10-09T02:22:32.173Z,11.80
2018-10-09T02:25:01.830Z,11.80
2018-10-09T02:27:31.369Z,11.80
2018-10-09T02:30:01.557Z,11.70
2018-10-09T02:32:31.070Z,11.70
2018-10-09T02:35:00.644Z,11.70
2018-10-09T02:37:30.186Z,11.70
2018-10-09T02:39:59.895Z,11.70
2018-10-09T02:42:29.411Z,11.70
2018-10-09T02:44:59.134Z,11.70
2018-10-09T02:47:36.207Z,11.70
2018-10-09T02:50:06.622Z,11.70
2018-10-09T02:52:36.264Z,11.60
2018-10-09T02:55:06.319Z,11.60
2018-10-09T02:57:35.992Z,11.50
2018-10-09T03:00:05.763Z,11.50
2018-10-09T03:02:35.549Z,11.50
2018-10-09T03:05:05.054Z,11.50
2018-10-09T03:07:34.634Z,11.50
2018-10-09T03:10:04.254Z,11.50
2018-10-09T03:12:33.810Z,11.50
2018-10-09T03:15:03.497Z,11.50
2018-10-09T03:17:33.103Z,11.50
2018-10-09T03:20:02.836Z,11.50
2018-10-09T03:22:32.326Z,11.40
2018-10-09T03:25:01.797Z,11.40
2018-10-09T03:27:31.686Z,11.50
2018-10-09T03:30:01.958Z,11.50
2018-10-09T03:32:32.341Z,11.40
2018-10-09T03:35:02.009Z,11.40
2018-10-09T03:37:31.637Z,11.40
2018-10-09T03:40:01.317Z,11.30
2018-10-09T03:42:31.537Z,11.40
2018-10-09T03:45:01.895Z,11.30
2018-10-09T03:47:31.466Z,11.30
2018-10-09T03:50:00.920Z,11.30
2018-10-09T03:52:30.417Z,11.20
2018-10-09T03:55:00.148Z,11.20
2018-10-09T03:57:29.871Z,11.20
2018-10-09T03:59:59.499Z,11.20
2018-10-09T04:02:29.545Z,11.20
2018-10-09T04:04:59.631Z,11.20
2018-10-09T04:07:29.448Z,11.20
2018-10-09T04:09:59.168Z,11.20
2018-10-09T04:12:29.083Z,11.20
2018-10-09T04:14:58.923Z,11.30
2018-10-09T04:17:28.721Z,11.20
2018-10-09T04:19:58.331Z,11.20
2018-10-09T04:22:27.775Z,11.10
2018-10-09T04:24:57.434Z,11.10
2018-10-09T04:27:26.940Z,11.10
2018-10-09T04:29:56.384Z,11.10
2018-10-09T04:32:25.928Z,11.10
2018-10-09T04:34:55.680Z,11.10
2018-10-09T04:37:25.237Z,11.20
2018-10-09T04:39:54.937Z,11.20
2018-10-09T04:42:24.783Z,11.10
2018-10-09T04:44:54.547Z,11.10
2018-10-09T04:47:24.032Z,11.00
2018-10-09T04:49:53.634Z,11.00
2018-10-09T04:52:23.764Z,10.90
2018-10-09T04:54:53.428Z,10.90
2018-10-09T04:57:23.078Z,10.90
2018-10-09T04:59:52.753Z,10.90
2018-10-09T05:02:22.350Z,10.90
2018-10-09T05:04:51.855Z,10.90
2018-10-09T05:07:22.095Z,10.90
2018-10-09T05:09:51.906Z,10.90
2018-10-09T05:12:21.553Z,10.80
2018-10-09T05:14:51.125Z,10.90
2018-10-09T05:17:20.647Z,10.80
2018-10-09T05:19:50.116Z,10.80
2018-10-09T05:22:19.854Z,10.80
2018-10-09T05:24:49.463Z,10.80
2018-10-09T05:27:19.027Z,10.80
2018-10-09T05:29:48.497Z,10.80
2018-10-09T05:32:18.244Z,10.90
2018-10-09T05:34:47.896Z,10.90
2018-10-09T05:37:17.498Z,10.90
2018-10-09T05:39:47.618Z,10.80
2018-10-09T05:42:17.077Z,10.80
2018-10-09T05:44:46.761Z,10.90
2018-10-09T05:47:16.325Z,10.90
2018-10-09T05:49:46.121Z,10.90
2018-10-09T05:52:15.726Z,11.00
2018-10-09T05:54:45.444Z,11.00
2018-10-09T05:57:14.996Z,11.10
2018-10-09T05:59:44.812Z,11.10
2018-10-09T06:02:14.396Z,11.10
2018-10-09T06:04:44.407Z,11.20
2018-10-09T06:07:14.061Z,11.30
2018-10-09T06:09:43.625Z,11.40
2018-10-09T06:12:13.990Z,11.60
2018-10-09T06:14:43.477Z,11.70
2018-10-09T06:17:13.052Z,11.90
2018-10-09T06:19:42.650Z,12.00
2018-10-09T06:22:12.502Z,12.20
2018-10-09T06:24:42.498Z,12.30
2018-10-09T06:27:11.991Z,12.50
2018-10-09T06:29:41.554Z,12.60
2018-10-09T06:32:11.344Z,12.70
2018-10-09T06:34:41.025Z,12.90
2018-10-09T06:37:11.383Z,13.00
2018-10-09T06:39:40.958Z,13.20
2018-10-09T06:42:10.425Z,13.40
2018-10-09T06:44:40.096Z,13.60
2018-10-09T06:47:09.984Z,13.80
2018-10-09T06:49:39.640Z,14.00
2018-10-09T06:52:09.819Z,14.20
2018-10-09T06:54:39.549Z,14.40
2018-10-09T06:57:10.045Z,14.60
2018-10-09T06:59:39.582Z,14.90
2018-10-09T07:02:09.269Z,15.10
2018-10-09T07:04:38.916Z,15.40
2018-10-09T07:07:08.625Z,16.10
2018-10-09T07:09:38.194Z,17.30
2018-10-09T07:12:07.968Z,18.80
2018-10-09T07:14:37.765Z,20.20
2018-10-09T07:17:07.724Z,21.30
2018-10-09T07:19:38.017Z,22.20
2018-10-09T07:22:07.704Z,22.70
2018-10-09T07:24:37.480Z,22.90
2018-10-09T07:27:07.092Z,23.10
2018-10-09T07:29:36.817Z,23.40
2018-10-09T07:32:06.324Z,23.50
2018-10-09T07:34:36.439Z,23.40
2018-10-09T07:37:06.454Z,23.50
2018-10-09T07:39:36.361Z,23.60
2018-10-09T07:42:05.858Z,23.40
2018-10-09T07:44:35.876Z,23.50
2018-10-09T07:47:06.165Z,23.80
2018-10-09T07:49:38.894Z,24.20
2018-10-09T07:52:09.342Z,24.70
2018-10-09T07:54:38.834Z,25.00
2018-10-09T07:57:08.359Z,25.00
2018-10-09T07:59:38.026Z,25.40
2018-10-09T08:02:07.583Z,25.50
2018-10-09T08:04:37.166Z,25.70
2018-10-09T08:07:07.173Z,25.80
2018-10-09T08:09:36.759Z,25.70
2018-10-09T08:12:06.567Z,25.80
2018-10-09T08:14:36.313Z,25.70
2018-10-09T08:17:05.936Z,25.70
2018-10-09T08:19:35.490Z,25.40
2018-10-09T08:22:11.899Z,25.20
2018-10-09T08:24:41.583Z,25.00
2018-10-09T08:27:11.322Z,25.30
2018-10-09T08:29:41.132Z,25.40
2018-10-09T08:32:10.758Z,25.20
2018-10-09T08:34:40.422Z,24.60
2018-10-09T08:37:10.220Z,24.20
2018-10-09T08:39:39.874Z,23.70
2018-10-09T08:42:09.577Z,23.40
2018-10-09T08:44:39.482Z,23.30
2018-10-09T08:47:09.099Z,23.60
2018-10-09T08:49:39.016Z,23.70
2018-10-09T08:52:08.692Z,23.70
2018-10-09T08:54:38.442Z,23.90
2018-10-09T08:57:08.265Z,23.90
2018-10-09T08:59:37.957Z,24.10
2018-10-09T09:02:08.100Z,24.40
2018-10-09T09:04:37.697Z,24.90
2018-10-09T09:07:07.456Z,25.40
2018-10-09T09:09:37.085Z,26.40
2018-10-09T09:12:06.823Z,27.00
2018-10-09T09:14:36.422Z,27.40
2018-10-09T09:17:06.463Z,27.20
2018-10-09T09:19:36.243Z,26.90
2018-10-09T09:22:06.071Z,25.90
2018-10-09T09:24:36.050Z,25.00
2018-10-09T09:27:05.912Z,24.30
2018-10-09T09:29:35.533Z,24.30
2018-10-09T09:32:05.105Z,24.80
2018-10-09T09:34:34.730Z,25.20
2018-10-09T09:37:04.640Z,26.00
2018-10-09T09:39:34.855Z,26.40
2018-10-09T09:42:04.773Z,26.50
2018-10-09T09:44:34.452Z,26.60
2018-10-09T09:47:04.581Z,27.10
2018-10-09T09:49:34.213Z,28.10
2018-10-09T09:52:04.378Z,29.30
2018-10-09T09:54:33.911Z,29.70
2018-10-09T09:57:03.860Z,30.00
2018-10-09T09:59:33.433Z,29.90
2018-10-09T10:02:03.131Z,30.30
2018-10-09T10:04:32.859Z,30.90
2018-10-09T10:07:02.631Z,31.40
2018-10-09T10:09:32.206Z,31.90
2018-10-09T10:12:01.638Z,31.70
2018-10-09T10:14:31.225Z,31.60
2018-10-09T10:17:00.814Z,31.70
2018-10-09T10:19:30.417Z,31.90
2018-10-09T10:21:59.944Z,32.00
2018-10-09T10:24:29.791Z,32.10
2018-10-09T10:26:59.552Z,32.10
2018-10-09T10:29:29.181Z,31.80
2018-10-09T10:31:59.580Z,31.90
2018-10-09T10:34:29.353Z,32.10
2018-10-09T10:36:58.893Z,31.70
2018-10-09T10:39:28.525Z,31.30
2018-10-09T10:41:58.399Z,31.40
2018-10-09T10:44:28.224Z,32.10
2018-10-09T10:46:57.787Z,32.70
2018-10-09T10:49:27.253Z,33.00
2018-10-09T10:51:56.830Z,32.90
2018-10-09T10:54:26.517Z,32.70
2018-10-09T10:56:56.162Z,32.70
2018-10-09T10:59:26.001Z,32.70
2018-10-09T11:01:55.755Z,32.70
2018-10-09T11:04:25.331Z,32.10
2018-10-09T11:06:54.932Z,32.50
2018-10-09T11:09:24.647Z,32.70
2018-10-09T11:11:54.246Z,32.40
2018-10-09T11:14:23.885Z,32.10
2018-10-09T11:16:53.886Z,32.00
2018-10-09T11:19:23.596Z,31.80
2018-10-09T11:21:53.197Z,31.00
2018-10-09T11:24:22.834Z,30.50
2018-10-09T11:26:52.553Z,30.00
2018-10-09T11:29:22.092Z,29.50
2018-10-09T11:31:52.005Z,29.40
2018-10-09T11:34:21.749Z,29.30
2018-10-09T11:36:51.333Z,28.90
2018-10-09T11:39:20.993Z,28.40
2018-10-09T11:41:50.654Z,27.90
2018-10-09T11:44:20.400Z,27.50
2018-10-09T11:46:50.068Z,27.10
2018-10-09T11:49:19.650Z,26.70
2018-10-09T11:51:50.355Z,26.00
2018-10-09T11:54:19.933Z,25.30
2018-10-09T11:56:49.864Z,24.90
2018-10-09T11:59:19.667Z,24.60
2018-10-09T12:01:49.355Z,24.30
2018-10-09T12:04:18.964Z,23.90
2018-10-09T12:06:48.701Z,23.80
2018-10-09T12:09:18.271Z,23.60
2018-10-09T12:11:47.931Z,23.50
2018-10-09T12:14:18.002Z,23.60
2018-10-09T12:16:47.884Z,23.60
2018-10-09T12:19:18.194Z,23.70
2018-10-09T12:21:47.808Z,23.70
2018-10-09T12:24:17.720Z,23.70
2018-10-09T12:26:47.376Z,23.80
2018-10-09T12:29:17.278Z,24.20
2018-10-09T12:31:47.108Z,25.10
2018-10-09T12:34:17.436Z,26.00
2018-10-09T12:36:46.998Z,26.20
2018-10-09T12:39:16.569Z,26.10
2018-10-09T12:41:46.334Z,25.90
2018-10-09T12:44:16.137Z,25.70
2018-10-09T12:46:46.307Z,25.40
2018-10-09T12:49:15.995Z,25.00
2018-10-09T12:51:45.584Z,24.50
2018-10-09T12:54:15.141Z,24.30
2018-10-09T12:56:44.816Z,24.20
2018-10-09T12:59:14.675Z,24.00
2018-10-09T13:01:44.329Z,23.80
2018-10-09T13:04:14.043Z,23.70
2018-10-09T13:06:43.681Z,23.50
2018-10-09T13:09:14.211Z,23.30
2018-10-09T13:11:44.212Z,23.00
2018-10-09T13:14:13.853Z,22.90
2018-10-09T13:16:43.965Z,22.80
2018-10-09T13:19:13.466Z,22.80
2018-10-09T13:21:43.455Z,22.80
2018-10-09T13:24:12.832Z,22.80
2018-10-09T13:26:42.426Z,22.90
2018-10-09T13:29:12.105Z,23.00
2018-10-09T13:31:41.681Z,23.10
2018-10-09T13:34:11.196Z,23.10
2018-10-09T13:36:40.906Z,23.10
2018-10-09T13:39:10.520Z,22.90
2018-10-09T13:41:40.418Z,22.80
2018-10-09T13:44:10.084Z,22.60
2018-10-09T13:46:40.270Z,22.50
2018-10-09T13:49:11.101Z,22.40
2018-10-09T13:51:40.720Z,22.50
2018-10-09T13:54:10.282Z,22.60
2018-10-09T13:56:40.001Z,22.60
2018-10-09T13:59:10.065Z,22.60
2018-10-09T14:01:39.963Z,22.60
2018-10-09T14:04:09.617Z,22.70
2018-10-09T14:06:39.256Z,22.70
2018-10-09T14:09:11.343Z,22.70
2018-10-09T14:11:41.187Z,22.60
2018-10-09T14:14:10.822Z,22.40
2018-10-09T14:16:40.497Z,22.30
2018-10-09T14:19:10.166Z,22.30
2018-10-09T14:21:39.810Z,22.20
2018-10-09T14:24:09.422Z,22.30
2018-10-09T14:26:39.524Z,22.20
2018-10-09T14:29:09.162Z,22.30
2018-10-09T14:31:39.008Z,22.30
2018-10-09T14:34:09.324Z,22.20
2018-10-09T14:36:39.113Z,22.20
2018-10-09T14:39:09.314Z,22.10
2018-10-09T14:41:39.001Z,22.00
2018-10-09T14:44:08.636Z,21.80
2018-10-09T14:46:38.396Z,21.80
2018-10-09T14:49:08.081Z,21.70
2018-10-09T14:51:37.726Z,21.70
2018-10-09T14:54:07.846Z,21.70
2018-10-09T14:56:37.369Z,21.70
2018-10-09T14:59:07.022Z,21.70
2018-10-09T15:01:36.736Z,21.60
2018-10-09T15:04:06.718Z,21.70
2018-10-09T15:06:36.386Z,21.60
2018-10-09T15:09:11.752Z,21.50
2018-10-09T15:11:41.777Z,21.50
2018-10-09T15:14:11.617Z,21.40
2018-10-09T15:16:41.244Z,21.40
2018-10-09T15:19:10.833Z,21.40
2018-10-09T15:21:40.421Z,21.30
2018-10-09T15:24:10.103Z,21.30
2018-10-09T15:26:39.617Z,21.30
2018-10-09T15:29:09.434Z,21.20
2018-10-09T15:31:38.966Z,21.10
2018-10-09T15:34:09.082Z,21.00
2018-10-09T15:36:38.825Z,20.90
2018-10-09T15:39:11.461Z,20.80
2018-10-09T15:41:41.396Z,20.70
2018-10-09T15:44:10.964Z,20.60
2018-10-09T15:46:40.700Z,20.60
2018-10-09T15:49:09.254Z,20.50
2018-10-09T15:51:38.939Z,20.30
2018-10-09T15:54:08.790Z,20.30
2018-10-09T15:56:38.535Z,20.30
2018-10-09T15:59:08.441Z,20.10
2018-10-09T16:01:38.164Z,20.10
2018-10-09T16:04:09.222Z,20.00
2018-10-09T16:06:39.194Z,19.90
2018-10-09T16:09:10.405Z,19.70
2018-10-09T16:11:40.205Z,19.60
2018-10-09T16:14:10.049Z,19.60
2018-10-09T16:16:39.677Z,19.40
2018-10-09T16:19:09.697Z,19.40
2018-10-09T16:21:39.768Z,19.30
2018-10-09T16:24:09.863Z,19.20
2018-10-09T16:26:39.624Z,19.10
2018-10-09T16:29:09.236Z,19.00
2018-10-09T16:31:39.049Z,18.80
2018-10-09T16:34:08.865Z,18.70
2018-10-09T16:36:39.099Z,18.60
2018-10-09T16:39:13.366Z,18.50
2018-10-09T16:41:43.140Z,18.50
2018-10-09T16:44:13.199Z,18.40
2018-10-09T16:46:43.148Z,18.30
2018-10-09T16:49:13.092Z,18.20
2018-10-09T16:51:42.745Z,18.10
2018-10-09T16:54:12.981Z,17.90
2018-10-09T16:56:42.701Z,17.80
2018-10-09T16:59:12.681Z,17.80
2018-10-09T17:01:42.374Z,17.60
2018-10-09T17:04:12.132Z,17.50
2018-10-09T17:06:43.042Z,17.40
2018-10-09T17:09:12.937Z,17.20
2018-10-09T17:11:42.894Z,17.10
2018-10-09T17:14:12.957Z,17.10
2018-10-09T17:16:42.756Z,17.00
2018-10-09T17:19:12.371Z,17.00
2018-10-09T17:21:42.293Z,16.80
2018-10-09T17:24:12.236Z,16.70
2018-10-09T17:26:42.121Z,16.70
2018-10-09T17:29:11.789Z,16.60
2018-10-09T17:31:41.545Z,16.50
2018-10-09T17:34:11.389Z,16.40
2018-10-09T17:36:41.572Z,16.30
2018-10-09T17:39:12.401Z,16.20
2018-10-09T17:41:42.258Z,16.20
2018-10-09T17:44:11.999Z,16.10
2018-10-09T17:46:41.979Z,16.10
2018-10-09T17:49:11.772Z,16.00
2018-10-09T17:51:41.772Z,16.00
2018-10-09T17:54:11.587Z,16.00
2018-10-09T17:56:41.159Z,15.90
2018-10-09T17:59:10.792Z,15.90
2018-10-09T18:01:40.424Z,15.80
2018-10-09T18:04:10.030Z,15.80
2018-10-09T18:06:39.859Z,15.80
2018-10-09T18:09:11.813Z,15.80
2018-10-09T18:11:41.870Z,15.70
2018-10-09T18:14:12.756Z,15.70
2018-10-09T18:16:42.352Z,15.70
2018-10-09T18:19:11.954Z,15.60
2018-10-09T18:21:41.554Z,15.60
2018-10-09T18:24:12.184Z,15.60
2018-10-09T18:26:42.509Z,15.50
2018-10-09T18:29:12.447Z,15.50
2018-10-09T18:31:42.202Z,15.30
2018-10-09T18:34:11.945Z,15.30
2018-10-09T18:36:41.648Z,15.30
2018-10-09T18:39:14.825Z,15.20
2018-10-09T18:41:45.875Z,15.20
2018-10-09T18:44:15.993Z,15.20
2018-10-09T18:46:45.781Z,15.10
2018-10-09T18:49:15.396Z,15.10
2018-10-09T18:51:45.527Z,15.00
2018-10-09T18:54:15.424Z,15.00
2018-10-09T18:56:45.088Z,15.00
2018-10-09T18:59:15.483Z,14.90
2018-10-09T19:01:46.025Z,14.90
2018-10-09T19:04:16.271Z,14.80
2018-10-09T19:06:46.787Z,14.80
2018-10-09T19:09:16.585Z,14.80
2018-10-09T19:11:46.265Z,14.80
2018-10-09T19:14:15.969Z,14.70
2018-10-09T19:16:45.628Z,14.70
2018-10-09T19:19:15.404Z,14.70
2018-10-09T19:21:45.088Z,14.70
2018-10-09T19:24:15.698Z,14.60
2018-10-09T19:26:45.511Z,14.60
2018-10-09T19:29:15.283Z,14.60
2018-10-09T19:31:44.968Z,14.50
2018-10-09T19:34:14.622Z,14.50
2018-10-09T19:36:44.551Z,14.50
2018-10-09T19:39:14.346Z,14.50
2018-10-09T19:41:43.959Z,14.40
2018-10-09T19:44:13.652Z,14.40
2018-10-09T19:46:43.411Z,14.40
2018-10-09T19:49:13.198Z,14.30
2018-10-09T19:51:43.154Z,14.40
2018-10-09T19:54:12.731Z,14.30
2018-10-09T19:56:42.672Z,14.30
2018-10-09T19:59:12.917Z,14.30
2018-10-09T20:01:42.547Z,14.30
2018-10-09T20:04:12.177Z,14.20
2018-10-09T20:06:42.035Z,14.20
2018-10-09T20:09:13.752Z,14.10
2018-10-09T20:11:43.301Z,14.20
2018-10-09T20:14:14.848Z,14.20
2018-10-09T20:16:44.570Z,14.20
2018-10-09T20:19:14.179Z,14.10
2018-10-09T20:21:44.004Z,14.10
2018-10-09T20:24:13.689Z,14.10
2018-10-09T20:26:43.485Z,14.10
2018-10-09T20:29:13.130Z,14.10
2018-10-09T20:31:42.933Z,14.10
2018-10-09T20:34:12.618Z,14.00
2018-10-09T20:36:42.307Z,13.90
2018-10-09T20:39:12.037Z,14.00
2018-10-09T20:41:42.014Z,13.90
2018-10-09T20:44:11.561Z,13.90
2018-10-09T20:46:41.455Z,13.90
2018-10-09T20:49:11.187Z,13.90
2018-10-09T20:51:40.765Z,13.90
2018-10-09T20:54:10.309Z,13.90
2018-10-09T20:56:39.924Z,13.90
2018-10-09T20:59:09.430Z,13.90
2018-10-09T21:01:39.027Z,13.80
2018-10-09T21:04:08.789Z,13.80
2018-10-09T21:06:38.501Z,13.80
2018-10-09T21:09:08.463Z,13.70
2018-10-09T21:11:38.189Z,13.70
2018-10-09T21:14:07.937Z,13.70
2018-10-09T21:16:37.532Z,13.70
2018-10-09T21:19:07.270Z,13.70
2018-10-09T21:21:37.071Z,13.70
2018-10-09T21:24:06.887Z,13.70
2018-10-09T21:26:36.535Z,13.70
2018-10-09T21:29:06.297Z,13.70
2018-10-09T21:31:36.042Z,13.70
2018-10-09T21:34:05.697Z,13.70
2018-10-09T21:36:35.408Z,13.60
2018-10-09T21:39:06.314Z,13.50
2018-10-09T21:41:36.107Z,13.50
2018-10-09T21:44:05.588Z,13.50
2018-10-09T21:46:35.300Z,13.50
2018-10-09T21:49:04.908Z,13.50
2018-10-09T21:51:34.457Z,13.50
2018-10-09T21:54:04.220Z,13.50
2018-10-09T21:56:33.879Z,13.50
2018-10-09T21:59:03.721Z,13.50
2018-10-09T22:01:34.247Z,13.40
2018-10-09T22:04:03.839Z,13.40
2018-10-09T22:06:33.494Z,13.40
2018-10-09T22:09:03.320Z,13.50
2018-10-09T22:11:32.994Z,13.40
2018-10-09T22:14:02.638Z,13.50
2018-10-09T22:16:32.204Z,13.40
2018-10-09T22:19:01.657Z,13.40
2018-10-09T22:21:31.355Z,13.30
2018-10-09T22:24:01.062Z,13.30
2018-10-09T22:26:30.862Z,13.40
2018-10-09T22:29:00.454Z,13.30
2018-10-09T22:31:30.085Z,13.30
2018-10-09T22:33:59.720Z,13.20
2018-10-09T22:36:29.511Z,13.20
2018-10-09T22:38:59.221Z,13.10
2018-10-09T22:41:28.792Z,13.20
2018-10-09T22:43:58.476Z,13.20
2018-10-09T22:46:28.118Z,13.10
2018-10-09T22:48:57.695Z,13.20
2018-10-09T22:51:27.325Z,13.10
2018-10-09T22:53:56.939Z,13.10
2018-10-09T22:56:26.552Z,13.00
2018-10-09T22:58:56.291Z,12.90
2018-10-09T23:01:25.893Z,13.00
2018-10-09T23:03:55.473Z,13.00
2018-10-09T23:06:25.085Z,13.00
2018-10-09T23:08:54.738Z,13.00
2018-10-09T23:11:24.430Z,12.90
2018-10-09T23:13:54.097Z,12.90
2018-10-09T23:16:23.749Z,12.90
2018-10-09T23:18:53.507Z,12.90
2018-10-09T23:21:23.244Z,12.90
2018-10-09T23:23:52.981Z,12.90
2018-10-09T23:26:22.554Z,12.90
2018-10-09T23:28:52.398Z,12.80
2018-10-09T23:31:22.110Z,12.90
2018-10-09T23:33:58.575Z,12.80
2018-10-09T23:36:34.698Z,12.80
2018-10-09T23:39:05.070Z,12.90
2018-10-09T23:41:34.759Z,12.80
2018-10-09T23:44:04.694Z,12.80
2018-10-09T23:46:34.283Z,12.80
2018-10-09T23:49:03.990Z,12.80
2018-10-09T23:51:33.599Z,12.80
2018-10-09T23:54:03.312Z,12.90
2018-10-09T23:56:33.009Z,12.80
2018-10-09T23:59:02.698Z,12.80
